createdAt,value
2018-08-22T00:00:01.061Z,15
2018-08-22T00:01:01.057Z,16
2018-08-22T00:02:01.094Z,18
2018-08-22T00:04:01.090Z,17
2018-08-22T00:07:01.125Z,15
2018-08-22T00:08:01.058Z,16
2018-08-22T00:09:01.118Z,18
2018-08-22T00:10:01.092Z,19
2018-08-22T00:12:01.124Z,18
2018-08-22T00:13:01.059Z,19
2018-08-22T00:14:01.092Z,16
2018-08-22T00:15:01.101Z,14
2018-08-22T00:20:01.076Z,16
2018-08-22T00:21:01.076Z,17
2018-08-22T00:25:01.076Z,16
2018-08-22T00:26:01.046Z,15
2018-08-22T00:28:01.077Z,16
2018-08-22T00:29:01.068Z,15
2018-08-22T00:30:01.051Z,17
2018-08-22T00:31:01.078Z,18
2018-08-22T00:32:01.079Z,16
2018-08-22T00:34:01.107Z,15
2018-08-22T00:35:01.081Z,13
2018-08-22T00:37:01.047Z,15
2018-08-22T00:38:01.075Z,14
2018-08-22T00:39:01.081Z,16
2018-08-22T00:40:01.048Z,17
2018-08-22T00:41:01.078Z,15
2018-08-22T00:43:01.073Z,18
2018-08-22T00:45:01.049Z,18
2018-08-22T00:46:01.084Z,19
2018-08-22T00:48:01.109Z,18
2018-08-22T00:49:01.080Z,16
2018-08-22T00:50:01.080Z,15
2018-08-22T00:51:01.082Z,16
2018-08-22T00:54:01.106Z,18
2018-08-22T00:55:01.049Z,19
2018-08-22T00:56:01.074Z,18
2018-08-22T00:57:01.057Z,17
2018-08-22T00:58:01.077Z,16
2018-08-22T00:59:01.082Z,15
2018-08-22T01:00:01.050Z,15
2018-08-22T01:01:01.082Z,14
2018-08-22T01:04:01.074Z,15
2018-08-22T01:05:01.083Z,16
2018-08-22T01:06:01.050Z,15
2018-08-22T01:08:01.082Z,14
2018-08-22T01:09:01.118Z,13
2018-08-22T01:10:01.083Z,12
2018-08-22T01:11:01.062Z,13
2018-08-22T01:12:01.084Z,15
2018-08-22T01:13:01.084Z,16
2018-08-22T01:14:01.051Z,18
2018-08-22T01:15:01.090Z,19
2018-08-22T01:16:01.083Z,17
2018-08-22T01:17:01.082Z,15
2018-08-22T01:18:01.113Z,14
2018-08-22T01:19:01.084Z,15
2018-08-22T01:20:01.051Z,16
2018-08-22T01:21:01.084Z,18
2018-08-22T01:25:01.088Z,17
2018-08-22T01:28:01.114Z,18
2018-08-22T01:29:01.091Z,16
2018-08-22T01:30:01.092Z,16
2018-08-22T01:32:01.088Z,17
2018-08-22T01:35:01.097Z,18
2018-08-22T01:36:01.128Z,17
2018-08-22T01:37:01.091Z,19
2018-08-22T01:38:01.091Z,18
2018-08-22T01:39:01.092Z,19
2018-08-22T01:40:01.094Z,20
2018-08-22T01:41:01.127Z,21
2018-08-22T01:43:01.092Z,20
2018-08-22T01:44:01.091Z,19
2018-08-22T01:45:01.107Z,18
2018-08-22T01:47:01.127Z,17
2018-08-22T01:49:01.076Z,18
2018-08-22T01:50:01.075Z,20
2018-08-22T01:51:01.077Z,21
2018-08-22T01:52:01.077Z,19
2018-08-22T01:53:01.114Z,18
2018-08-22T01:54:01.081Z,17
2018-08-22T01:55:01.079Z,18
2018-08-22T01:56:01.078Z,16
2018-08-22T01:57:01.079Z,17
2018-08-22T02:00:01.080Z,15
2018-08-22T02:01:01.108Z,16
2018-08-22T02:02:01.080Z,17
2018-08-22T02:03:01.081Z,16
2018-08-22T02:04:01.081Z,17
2018-08-22T02:06:01.098Z,16
2018-08-22T02:08:01.084Z,18
2018-08-22T02:09:01.083Z,17
2018-08-22T02:10:01.081Z,18
2018-08-22T02:11:01.080Z,19
2018-08-22T02:12:01.082Z,18
2018-08-22T02:13:01.083Z,19
2018-08-22T02:14:01.084Z,20
2018-08-22T02:15:01.087Z,19
2018-08-22T02:17:01.084Z,18
2018-08-22T02:19:01.083Z,17
2018-08-22T02:21:01.124Z,18
2018-08-22T02:24:01.084Z,19
2018-08-22T02:25:01.143Z,17
2018-08-22T02:26:01.083Z,16
2018-08-22T02:27:01.120Z,17
2018-08-22T02:28:01.084Z,14
2018-08-22T02:29:01.091Z,15
2018-08-22T02:30:01.085Z,18
2018-08-22T02:31:01.086Z,19
2018-08-22T02:32:01.086Z,18
2018-08-22T02:33:01.119Z,19
2018-08-22T02:35:01.087Z,18
2018-08-22T02:37:01.095Z,17
2018-08-22T02:39:01.128Z,15
2018-08-22T02:40:01.089Z,14
2018-08-22T02:41:01.086Z,15
2018-08-22T02:42:01.086Z,17
2018-08-22T02:43:01.087Z,18
2018-08-22T02:45:01.090Z,18
2018-08-22T02:47:01.117Z,15
2018-08-22T02:49:01.086Z,16
2018-08-22T02:50:01.086Z,19
2018-08-22T02:52:01.121Z,23
2018-08-22T02:53:01.091Z,22
2018-08-22T02:55:01.088Z,20
2018-08-22T02:56:01.117Z,21
2018-08-22T02:57:01.088Z,20
2018-08-22T02:58:01.095Z,19
2018-08-22T02:59:01.086Z,18
2018-08-22T03:00:01.091Z,17
2018-08-22T03:01:01.119Z,14
2018-08-22T03:03:01.090Z,16
2018-08-22T03:06:01.092Z,17
2018-08-22T03:07:01.090Z,16
2018-08-22T03:08:01.092Z,13
2018-08-22T03:09:01.096Z,12
2018-08-22T03:10:01.096Z,10
2018-08-22T03:11:01.089Z,12
2018-08-22T03:12:01.093Z,13
2018-08-22T03:13:01.092Z,15
2018-08-22T03:14:01.089Z,16
2018-08-22T03:15:01.091Z,16
2018-08-22T03:17:01.094Z,14
2018-08-22T03:18:01.092Z,12
2018-08-22T03:19:01.092Z,14
2018-08-22T03:20:01.093Z,15
2018-08-22T03:21:01.091Z,14
2018-08-22T03:22:01.092Z,16
2018-08-22T03:23:01.091Z,18
2018-08-22T03:24:01.099Z,17
2018-08-22T03:26:01.107Z,18
2018-08-22T03:27:01.094Z,19
2018-08-22T03:29:01.204Z,20
2018-08-22T03:30:01.075Z,20
2018-08-22T03:31:01.076Z,19
2018-08-22T03:33:01.080Z,18
2018-08-22T03:34:01.226Z,17
2018-08-22T03:35:01.081Z,16
2018-08-22T03:37:01.077Z,17
2018-08-22T03:38:01.083Z,16
2018-08-22T03:42:01.080Z,14
2018-08-22T03:45:01.077Z,13
2018-08-22T03:46:01.080Z,14
2018-08-22T03:47:01.078Z,13
2018-08-22T03:48:01.076Z,14
2018-08-22T03:49:01.083Z,15
2018-08-22T03:50:01.078Z,14
2018-08-22T03:51:01.078Z,15
2018-08-22T03:52:01.079Z,16
2018-08-22T03:53:01.079Z,14
2018-08-22T03:54:01.082Z,13
2018-08-22T03:55:01.085Z,14
2018-08-22T03:56:01.080Z,12
2018-08-22T03:57:01.088Z,13
2018-08-22T03:58:01.093Z,14
2018-08-22T04:00:01.084Z,15
2018-08-22T04:01:01.082Z,16
2018-08-22T04:02:01.081Z,15
2018-08-22T04:03:01.087Z,16
2018-08-22T04:05:01.097Z,18
2018-08-22T04:06:01.085Z,19
2018-08-22T04:07:01.085Z,21
2018-08-22T04:09:01.085Z,22
2018-08-22T04:10:01.084Z,19
2018-08-22T04:11:01.095Z,18
2018-08-22T04:12:01.083Z,17
2018-08-22T04:15:01.085Z,19
2018-08-22T04:16:01.085Z,18
2018-08-22T04:19:01.085Z,17
2018-08-22T04:20:01.086Z,16
2018-08-22T04:21:01.087Z,15
2018-08-22T04:22:01.086Z,16
2018-08-22T04:24:01.085Z,17
2018-08-22T04:25:01.089Z,18
2018-08-22T04:26:01.086Z,20
2018-08-22T04:27:01.089Z,18
2018-08-22T04:28:01.150Z,17
2018-08-22T04:29:01.102Z,18
2018-08-22T04:30:01.088Z,18
2018-08-22T04:31:01.151Z,15
2018-08-22T04:32:01.088Z,16
2018-08-22T04:34:01.092Z,15
2018-08-22T04:35:01.090Z,13
2018-08-22T04:36:01.089Z,15
2018-08-22T04:37:01.089Z,16
2018-08-22T04:38:01.107Z,17
2018-08-22T04:39:01.090Z,16
2018-08-22T04:40:01.087Z,18
2018-08-22T04:41:01.088Z,16
2018-08-22T04:43:01.094Z,17
2018-08-22T04:45:01.087Z,18
2018-08-22T04:47:01.087Z,17
2018-08-22T04:48:01.088Z,21
2018-08-22T04:49:01.088Z,20
2018-08-22T04:50:01.087Z,19
2018-08-22T04:51:01.089Z,21
2018-08-22T04:53:01.090Z,15
2018-08-22T04:54:01.090Z,16
2018-08-22T04:55:01.088Z,17
2018-08-22T04:56:01.087Z,16
2018-08-22T04:57:01.087Z,15
2018-08-22T04:58:01.090Z,17
2018-08-22T04:59:01.087Z,16
2018-08-22T05:00:01.089Z,16
2018-08-22T05:01:01.088Z,17
2018-08-22T05:02:01.089Z,16
2018-08-22T05:03:01.088Z,15
2018-08-22T05:04:01.091Z,14
2018-08-22T05:05:01.091Z,15
2018-08-22T05:06:01.189Z,13
2018-08-22T05:07:01.091Z,15
2018-08-22T05:08:01.095Z,16
2018-08-22T05:10:01.094Z,15
2018-08-22T05:11:01.106Z,16
2018-08-22T05:13:01.092Z,14
2018-08-22T05:14:01.092Z,16
2018-08-22T05:15:01.094Z,15
2018-08-22T05:16:01.091Z,16
2018-08-22T05:18:01.091Z,18
2018-08-22T05:19:01.092Z,17
2018-08-22T05:20:01.095Z,18
2018-08-22T05:23:01.093Z,17
2018-08-22T05:25:01.097Z,16
2018-08-22T05:26:01.097Z,15
2018-08-22T05:28:01.089Z,16
2018-08-22T05:29:01.094Z,17
2018-08-22T05:30:01.116Z,18
2018-08-22T05:33:01.091Z,17
2018-08-22T05:35:01.093Z,16
2018-08-22T05:36:01.092Z,17
2018-08-22T05:37:01.092Z,16
2018-08-22T05:40:01.092Z,17
2018-08-22T05:45:01.096Z,15
2018-08-22T05:46:01.095Z,16
2018-08-22T05:47:01.095Z,17
2018-08-22T05:48:01.091Z,16
2018-08-22T05:49:01.096Z,17
2018-08-22T05:50:01.093Z,19
2018-08-22T05:51:01.093Z,18
2018-08-22T05:52:01.094Z,17
2018-08-22T05:53:01.095Z,19
2018-08-22T05:56:01.077Z,18
2018-08-22T05:57:01.083Z,16
2018-08-22T05:58:01.078Z,19
2018-08-22T06:00:01.086Z,19
2018-08-22T06:01:01.082Z,20
2018-08-22T06:02:01.083Z,19
2018-08-22T06:03:01.080Z,18
2018-08-22T06:04:01.081Z,16
2018-08-22T06:07:01.082Z,17
2018-08-22T06:10:01.152Z,15
2018-08-22T06:12:01.081Z,14
2018-08-22T06:14:01.082Z,15
2018-08-22T06:15:01.084Z,16
2018-08-22T06:16:01.089Z,15
2018-08-22T06:19:01.082Z,14
2018-08-22T06:22:01.082Z,16
2018-08-22T06:23:01.081Z,17
2018-08-22T06:24:01.080Z,16
2018-08-22T06:26:01.085Z,18
2018-08-22T06:28:01.109Z,17
2018-08-22T06:30:01.086Z,18
2018-08-22T06:31:01.096Z,16
2018-08-22T06:33:01.126Z,17
2018-08-22T06:34:01.085Z,18
2018-08-22T06:35:01.083Z,16
2018-08-22T06:37:01.084Z,15
2018-08-22T06:39:01.089Z,14
2018-08-22T06:42:01.089Z,16
2018-08-22T06:43:01.086Z,15
2018-08-22T06:45:01.086Z,15
2018-08-22T06:46:01.091Z,16
2018-08-22T06:47:01.086Z,14
2018-08-22T06:48:01.102Z,15
2018-08-22T06:49:01.084Z,14
2018-08-22T06:50:01.090Z,15
2018-08-22T06:53:01.092Z,17
2018-08-22T06:54:01.086Z,18
2018-08-22T06:56:01.086Z,19
2018-08-22T06:57:01.136Z,20
2018-08-22T06:58:01.090Z,19
2018-08-22T06:59:01.089Z,20
2018-08-22T07:00:01.087Z,20
2018-08-22T07:01:01.086Z,19
2018-08-22T07:02:01.084Z,18
2018-08-22T07:06:01.093Z,19
2018-08-22T07:07:01.090Z,20
2018-08-22T07:08:01.135Z,18
2018-08-22T07:09:01.092Z,19
2018-08-22T07:11:01.090Z,18
2018-08-22T07:13:01.092Z,21
2018-08-22T07:14:01.124Z,18
2018-08-22T07:15:01.092Z,18
2018-08-22T07:16:01.093Z,19
2018-08-22T07:17:01.093Z,18
2018-08-22T07:18:01.092Z,17
2018-08-22T07:19:01.093Z,19
2018-08-22T07:20:01.096Z,18
2018-08-22T07:23:01.076Z,19
2018-08-22T07:26:01.077Z,21
2018-08-22T07:29:01.081Z,20
2018-08-22T07:30:01.114Z,20
2018-08-22T07:31:01.078Z,18
2018-08-22T07:35:01.080Z,16
2018-08-22T07:37:01.080Z,18
2018-08-22T07:38:01.083Z,17
2018-08-22T07:39:01.083Z,18
2018-08-22T07:40:01.080Z,20
2018-08-22T07:41:01.081Z,19
2018-08-22T07:42:01.083Z,16
2018-08-22T07:43:01.083Z,15
2018-08-22T07:44:01.083Z,16
2018-08-22T07:45:01.082Z,14
2018-08-22T07:46:01.083Z,15
2018-08-22T07:47:01.114Z,17
2018-08-22T07:48:01.090Z,18
2018-08-22T07:49:01.083Z,16
2018-08-22T07:50:01.087Z,17
2018-08-22T07:52:01.084Z,20
2018-08-22T07:53:01.093Z,19
2018-08-22T07:55:01.084Z,20
2018-08-22T07:57:01.086Z,16
2018-08-22T07:58:01.086Z,17
2018-08-22T07:59:01.086Z,18
2018-08-22T08:00:01.141Z,16
2018-08-22T08:01:01.090Z,17
2018-08-22T08:02:01.299Z,19
2018-08-22T08:05:01.088Z,20
2018-08-22T08:06:01.093Z,19
2018-08-22T08:07:01.110Z,18
2018-08-22T08:09:01.088Z,16
2018-08-22T08:12:01.093Z,15
2018-08-22T08:13:01.091Z,14
2018-08-22T08:15:01.092Z,13
2018-08-22T08:17:02.173Z,15
2018-08-22T08:19:01.091Z,16
2018-08-22T08:20:01.091Z,17
2018-08-22T08:24:01.092Z,18
2018-08-22T08:25:01.093Z,19
2018-08-22T08:26:01.105Z,18
2018-08-22T08:27:01.093Z,17
2018-08-22T08:29:01.092Z,15
2018-08-22T08:30:01.096Z,14
2018-08-22T08:31:01.095Z,15
2018-08-22T08:33:01.078Z,17
2018-08-22T08:34:01.082Z,18
2018-08-22T08:35:01.077Z,20
2018-08-22T08:36:01.085Z,19
2018-08-22T08:37:01.078Z,18
2018-08-22T08:38:01.077Z,17
2018-08-22T08:40:01.112Z,16
2018-08-22T08:44:01.080Z,15
2018-08-22T08:45:01.081Z,16
2018-08-22T08:47:01.105Z,17
2018-08-22T08:48:01.089Z,16
2018-08-22T08:49:01.079Z,15
2018-08-22T08:50:01.080Z,14
2018-08-22T08:51:01.126Z,13
2018-08-22T08:54:01.081Z,15
2018-08-22T08:55:01.081Z,16
2018-08-22T08:56:01.082Z,17
2018-08-22T08:57:01.082Z,16
2018-08-22T08:58:01.083Z,15
2018-08-22T08:59:01.083Z,14
2018-08-22T09:00:01.086Z,13
2018-08-22T09:01:01.104Z,15
2018-08-22T09:02:01.082Z,17
2018-08-22T09:04:01.153Z,18
2018-08-22T09:06:01.083Z,16
2018-08-22T09:10:01.083Z,17
2018-08-22T09:11:01.085Z,16
2018-08-22T09:12:01.112Z,15
2018-08-22T09:13:01.084Z,16
2018-08-22T09:15:01.086Z,17
2018-08-22T09:16:01.085Z,18
2018-08-22T09:19:01.123Z,17
2018-08-22T09:20:01.085Z,16
2018-08-22T09:26:01.092Z,14
2018-08-22T09:27:01.117Z,15
2018-08-22T09:28:01.113Z,14
2018-08-22T09:30:01.147Z,14
2018-08-22T09:31:01.092Z,15
2018-08-22T09:33:01.119Z,13
2018-08-22T09:34:01.095Z,15
2018-08-22T09:36:01.129Z,17
2018-08-22T09:38:01.091Z,18
2018-08-22T09:39:01.097Z,17
2018-08-22T09:40:01.185Z,18
2018-08-22T09:41:01.143Z,17
2018-08-22T09:42:01.092Z,16
2018-08-22T09:43:01.091Z,17
2018-08-22T09:45:01.094Z,17
2018-08-22T09:47:01.109Z,19
2018-08-22T09:49:01.078Z,18
2018-08-22T09:50:01.121Z,17
2018-08-22T09:51:01.076Z,16
2018-08-22T09:55:01.083Z,17
2018-08-22T09:57:01.110Z,18
2018-08-22T09:58:01.075Z,17
2018-08-22T09:59:01.140Z,18
2018-08-22T10:00:01.184Z,17
2018-08-22T10:02:01.118Z,16
2018-08-22T10:04:01.076Z,19
2018-08-22T10:05:01.074Z,20
2018-08-22T10:06:01.078Z,18
2018-08-22T10:08:01.110Z,17
2018-08-22T10:09:01.087Z,14
2018-08-22T10:10:01.145Z,15
2018-08-22T10:13:01.075Z,16
2018-08-22T10:14:01.163Z,17
2018-08-22T10:15:01.140Z,16
2018-08-22T10:16:01.074Z,18
2018-08-22T10:17:01.075Z,19
2018-08-22T10:18:01.177Z,18
2018-08-22T10:20:01.089Z,17
2018-08-22T10:21:01.076Z,16
2018-08-22T10:24:01.077Z,18
2018-08-22T10:25:01.080Z,19
2018-08-22T10:26:01.079Z,20
2018-08-22T10:27:01.080Z,18
2018-08-22T10:28:01.076Z,19
2018-08-22T10:29:01.112Z,18
2018-08-22T10:30:01.076Z,18
2018-08-22T10:32:01.076Z,19
2018-08-22T10:33:01.110Z,21
2018-08-22T10:34:01.080Z,18
2018-08-22T10:37:01.076Z,17
2018-08-22T10:38:01.077Z,14
2018-08-22T10:40:01.080Z,15
2018-08-22T10:41:01.077Z,14
2018-08-22T10:42:01.080Z,15
2018-08-22T10:44:01.077Z,17
2018-08-22T10:45:01.077Z,15
2018-08-22T10:46:01.077Z,16
2018-08-22T10:47:01.077Z,17
2018-08-22T10:48:01.134Z,18
2018-08-22T10:52:01.123Z,16
2018-08-22T10:53:01.086Z,18
2018-08-22T10:54:01.119Z,19
2018-08-22T10:57:01.083Z,18
2018-08-22T10:58:01.112Z,17
2018-08-22T10:59:01.106Z,15
2018-08-22T11:00:01.084Z,15
2018-08-22T11:01:01.082Z,16
2018-08-22T11:03:01.081Z,17
2018-08-22T11:05:01.084Z,16
2018-08-22T11:08:01.109Z,17
2018-08-22T11:09:01.092Z,18
2018-08-22T11:10:01.170Z,19
2018-08-22T11:11:01.085Z,20
2018-08-22T11:14:01.135Z,19
2018-08-22T11:15:01.095Z,17
2018-08-22T11:16:01.088Z,18
2018-08-22T11:17:01.085Z,17
2018-08-22T11:19:01.116Z,16
2018-08-22T11:20:01.096Z,17
2018-08-22T11:21:01.086Z,16
2018-08-22T11:24:01.119Z,17
2018-08-22T11:27:01.088Z,16
2018-08-22T11:28:01.119Z,17
2018-08-22T11:30:01.153Z,17
2018-08-22T11:32:01.087Z,20
2018-08-22T11:37:01.167Z,17
2018-08-22T11:38:01.152Z,18
2018-08-22T11:39:01.092Z,17
2018-08-22T11:42:01.092Z,18
2018-08-22T11:45:01.092Z,19
2018-08-22T11:46:01.091Z,17
2018-08-22T11:47:01.094Z,18
2018-08-22T11:51:01.092Z,20
2018-08-22T11:52:01.162Z,19
2018-08-22T11:55:01.091Z,18
2018-08-22T11:56:01.145Z,16
2018-08-22T11:57:01.091Z,17
2018-08-22T11:58:01.093Z,18
2018-08-22T12:00:01.078Z,19
2018-08-22T12:01:01.076Z,18
2018-08-22T12:02:01.196Z,19
2018-08-22T12:03:01.075Z,18
2018-08-22T12:05:01.081Z,17
2018-08-22T12:06:01.078Z,19
2018-08-22T12:07:01.080Z,20
2018-08-22T12:08:01.078Z,18
2018-08-22T12:09:01.084Z,19
2018-08-22T12:10:01.081Z,18
2018-08-22T12:12:01.077Z,17
2018-08-22T12:13:01.076Z,20
2018-08-22T12:14:01.081Z,19
2018-08-22T12:15:01.147Z,19
2018-08-22T12:17:01.077Z,20
2018-08-22T12:19:01.080Z,19
2018-08-22T12:23:01.125Z,16
2018-08-22T12:24:01.084Z,17
2018-08-22T12:27:01.082Z,18
2018-08-22T12:28:01.089Z,19
2018-08-22T12:30:01.083Z,17
2018-08-22T12:31:01.104Z,15
2018-08-22T12:33:01.086Z,16
2018-08-22T12:35:01.112Z,17
2018-08-22T12:36:01.085Z,19
2018-08-22T12:38:01.085Z,17
2018-08-22T12:40:01.090Z,16
2018-08-22T12:41:01.084Z,17
2018-08-22T12:42:01.149Z,15
2018-08-22T12:43:01.084Z,16
2018-08-22T12:45:01.089Z,16
2018-08-22T12:46:01.085Z,15
2018-08-22T12:47:01.084Z,17
2018-08-22T12:48:01.086Z,18
2018-08-22T12:49:01.115Z,19
2018-08-22T12:50:01.085Z,22
2018-08-22T12:51:01.085Z,20
2018-08-22T12:52:01.084Z,18
2018-08-22T12:54:01.120Z,16
2018-08-22T12:55:01.085Z,14
2018-08-22T12:56:01.085Z,17
2018-08-22T12:58:01.086Z,16
2018-08-22T12:59:01.115Z,18
2018-08-22T13:00:01.095Z,18
2018-08-22T13:01:01.090Z,17
2018-08-22T13:02:01.087Z,18
2018-08-22T13:03:01.088Z,20
2018-08-22T13:04:01.140Z,19
2018-08-22T13:05:01.090Z,18
2018-08-22T13:06:01.088Z,20
2018-08-22T13:07:01.153Z,18
2018-08-22T13:08:01.152Z,17
2018-08-22T13:09:01.118Z,16
2018-08-22T13:10:01.089Z,17
2018-08-22T13:12:01.089Z,19
2018-08-22T13:13:01.151Z,17
2018-08-22T13:14:01.154Z,18
2018-08-22T13:15:01.090Z,17
2018-08-22T13:17:01.197Z,16
2018-08-22T13:18:01.118Z,18
2018-08-22T13:21:01.092Z,17
2018-08-22T13:23:01.119Z,18
2018-08-22T13:24:01.194Z,17
2018-08-22T13:26:01.091Z,18
2018-08-22T13:27:01.163Z,17
2018-08-22T13:28:01.119Z,16
2018-08-22T13:29:01.092Z,17
2018-08-22T13:30:01.095Z,17
2018-08-22T13:31:01.099Z,16
2018-08-22T13:32:01.094Z,15
2018-08-22T13:33:01.121Z,16
2018-08-22T13:34:01.092Z,15
2018-08-22T13:37:01.094Z,16
2018-08-22T13:38:01.128Z,14
2018-08-22T13:40:01.094Z,15
2018-08-22T13:41:01.100Z,14
2018-08-22T13:43:01.123Z,15
2018-08-22T13:44:01.098Z,16
2018-08-22T13:45:01.098Z,16
2018-08-22T13:46:01.100Z,17
2018-08-22T13:48:01.136Z,18
2018-08-22T13:51:01.082Z,16
2018-08-22T13:52:01.088Z,19
2018-08-22T13:53:01.081Z,20
2018-08-22T13:54:01.124Z,18
2018-08-22T13:55:01.081Z,16
2018-08-22T13:56:01.139Z,17
2018-08-22T13:57:01.082Z,14
2018-08-22T13:58:01.083Z,15
2018-08-22T13:59:01.083Z,17
2018-08-22T14:00:01.088Z,17
2018-08-22T14:01:01.089Z,16
2018-08-22T14:02:01.086Z,17
2018-08-22T14:04:01.085Z,16
2018-08-22T14:05:01.086Z,18
2018-08-22T14:07:01.085Z,17
2018-08-22T14:08:01.091Z,18
2018-08-22T14:10:01.161Z,16
2018-08-22T14:11:01.085Z,17
2018-08-22T14:13:01.088Z,15
2018-08-22T14:14:01.088Z,16
2018-08-22T14:15:01.095Z,17
2018-08-22T14:19:01.093Z,16
2018-08-22T14:21:01.088Z,15
2018-08-22T14:22:01.092Z,17
2018-08-22T14:23:01.091Z,16
2018-08-22T14:25:01.095Z,15
2018-08-22T14:26:01.088Z,16
2018-08-22T14:27:01.089Z,15
2018-08-22T14:28:01.089Z,16
2018-08-22T14:29:01.090Z,18
2018-08-22T14:30:01.092Z,19
2018-08-22T14:32:01.092Z,20
2018-08-22T14:34:01.095Z,19
2018-08-22T14:35:01.090Z,18
2018-08-22T14:37:01.090Z,17
2018-08-22T14:38:01.090Z,15
2018-08-22T14:39:01.091Z,13
2018-08-22T14:41:01.103Z,14
2018-08-22T14:43:01.093Z,15
2018-08-22T14:44:01.095Z,17
2018-08-22T14:45:01.221Z,18
2018-08-22T14:46:01.092Z,16
2018-08-22T14:48:01.093Z,15
2018-08-22T14:49:01.092Z,14
2018-08-22T14:50:01.096Z,13
2018-08-22T14:51:01.093Z,16
2018-08-22T14:53:01.093Z,18
2018-08-22T14:55:01.093Z,22
2018-08-22T14:56:01.121Z,20
2018-08-22T14:58:01.093Z,18
2018-08-22T15:00:01.094Z,16
2018-08-22T15:01:01.094Z,17
2018-08-22T15:03:01.459Z,19
2018-08-22T15:04:01.100Z,20
2018-08-22T15:05:01.097Z,22
2018-08-22T15:08:01.093Z,23
2018-08-22T15:09:01.094Z,21
2018-08-22T15:10:01.094Z,18
2018-08-22T15:11:01.097Z,17
2018-08-22T15:13:01.173Z,14
2018-08-22T15:15:01.101Z,15
2018-08-22T15:17:01.095Z,14
2018-08-22T15:18:01.097Z,18
2018-08-22T15:20:01.078Z,21
2018-08-22T15:21:01.083Z,19
2018-08-22T15:22:01.080Z,20
2018-08-22T15:24:01.079Z,17
2018-08-22T15:25:01.078Z,16
2018-08-22T15:26:01.079Z,17
2018-08-22T15:27:01.083Z,18
2018-08-22T15:29:01.081Z,17
2018-08-22T15:30:01.192Z,17
2018-08-22T15:31:01.078Z,18
2018-08-22T15:33:01.079Z,17
2018-08-22T15:34:01.127Z,18
2018-08-22T15:35:01.078Z,17
2018-08-22T15:36:01.077Z,15
2018-08-22T15:41:01.115Z,17
2018-08-22T15:45:01.084Z,16
2018-08-22T15:46:01.081Z,14
2018-08-22T15:47:01.082Z,15
2018-08-22T15:48:01.081Z,16
2018-08-22T15:49:01.081Z,17
2018-08-22T15:51:01.080Z,19
2018-08-22T15:52:01.082Z,18
2018-08-22T15:53:01.105Z,16
2018-08-22T15:54:01.080Z,17
2018-08-22T15:56:01.082Z,18
2018-08-22T15:58:01.084Z,19
2018-08-22T16:00:01.083Z,18
2018-08-22T16:01:01.082Z,17
2018-08-22T16:02:01.081Z,18
2018-08-22T16:03:01.082Z,16
2018-08-22T16:04:01.082Z,17
2018-08-22T16:05:01.081Z,16
2018-08-22T16:06:01.089Z,15
2018-08-22T16:07:01.082Z,14
2018-08-22T16:08:01.084Z,17
2018-08-22T16:09:01.080Z,15
2018-08-22T16:10:01.086Z,16
2018-08-22T16:11:01.085Z,17
2018-08-22T16:13:01.079Z,16
2018-08-22T16:14:01.080Z,17
2018-08-22T16:15:01.083Z,16
2018-08-22T16:16:01.082Z,17
2018-08-22T16:18:01.081Z,16
2018-08-22T16:23:01.084Z,18
2018-08-22T16:25:01.083Z,19
2018-08-22T16:26:01.088Z,17
2018-08-22T16:27:01.085Z,18
2018-08-22T16:28:01.086Z,16
2018-08-22T16:30:01.086Z,18
2018-08-22T16:31:01.112Z,19
2018-08-22T16:32:01.085Z,17
2018-08-22T16:33:01.086Z,18
2018-08-22T16:34:01.085Z,19
2018-08-22T16:35:01.090Z,17
2018-08-22T16:36:01.129Z,18
2018-08-22T16:37:01.090Z,19
2018-08-22T16:40:01.094Z,20
2018-08-22T16:41:01.087Z,21
2018-08-22T16:42:01.087Z,20
2018-08-22T16:45:01.093Z,19
2018-08-22T16:46:01.090Z,17
2018-08-22T16:47:01.087Z,18
2018-08-22T16:49:01.095Z,19
2018-08-22T16:51:01.085Z,20
2018-08-22T16:52:01.084Z,19
2018-08-22T16:54:01.089Z,18
2018-08-22T16:55:01.085Z,17
2018-08-22T16:56:01.084Z,15
2018-08-22T16:57:01.084Z,16
2018-08-22T17:00:01.083Z,16
2018-08-22T17:01:01.084Z,17
2018-08-22T17:03:01.088Z,18
2018-08-22T17:04:01.086Z,17
2018-08-22T17:05:01.091Z,16
2018-08-22T17:06:01.088Z,18
2018-08-22T17:10:01.086Z,19
2018-08-22T17:11:01.098Z,17
2018-08-22T17:12:01.084Z,15
2018-08-22T17:13:01.086Z,14
2018-08-22T17:14:01.089Z,15
2018-08-22T17:15:01.085Z,14
2018-08-22T17:16:01.089Z,15
2018-08-22T17:17:01.088Z,18
2018-08-22T17:18:01.087Z,16
2018-08-22T17:19:01.086Z,17
2018-08-22T17:20:01.088Z,19
2018-08-22T17:21:01.087Z,20
2018-08-22T17:22:01.097Z,18
2018-08-22T17:23:01.088Z,19
2018-08-22T17:24:01.088Z,18
2018-08-22T17:25:01.092Z,17
2018-08-22T17:26:01.088Z,15
2018-08-22T17:27:01.088Z,16
2018-08-22T17:28:01.087Z,18
2018-08-22T17:29:01.087Z,17
2018-08-22T17:30:01.092Z,19
2018-08-22T17:31:01.090Z,17
2018-08-22T17:39:01.074Z,16
2018-08-22T17:40:01.076Z,15
2018-08-22T17:41:01.075Z,16
2018-08-22T17:43:01.077Z,15
2018-08-22T17:44:01.087Z,16
2018-08-22T17:45:01.077Z,18
2018-08-22T17:46:01.076Z,17
2018-08-22T17:47:01.076Z,18
2018-08-22T17:48:01.077Z,20
2018-08-22T17:49:01.076Z,19
2018-08-22T17:50:01.077Z,17
2018-08-22T17:53:01.079Z,15
2018-08-22T17:54:01.078Z,16
2018-08-22T17:55:01.079Z,15
2018-08-22T17:56:01.078Z,13
2018-08-22T17:57:01.081Z,15
2018-08-22T17:58:01.083Z,16
2018-08-22T17:59:01.080Z,15
2018-08-22T18:00:01.085Z,17
2018-08-22T18:01:01.081Z,18
2018-08-22T18:02:01.082Z,16
2018-08-22T18:03:01.085Z,15
2018-08-22T18:04:01.083Z,17
2018-08-22T18:05:01.081Z,16
2018-08-22T18:06:01.081Z,17
2018-08-22T18:07:01.083Z,16
2018-08-22T18:08:01.084Z,18
2018-08-22T18:11:01.081Z,21
2018-08-22T18:13:01.085Z,18
2018-08-22T18:14:01.111Z,17
2018-08-22T18:15:01.084Z,18
2018-08-22T18:16:01.089Z,15
2018-08-22T18:17:01.091Z,16
2018-08-22T18:18:01.099Z,17
2018-08-22T18:19:01.084Z,16
2018-08-22T18:20:01.086Z,15
2018-08-22T18:21:01.086Z,17
2018-08-22T18:22:01.090Z,16
2018-08-22T18:23:01.087Z,18
2018-08-22T18:25:01.087Z,19
2018-08-22T18:26:01.091Z,16
2018-08-22T18:27:01.085Z,17
2018-08-22T18:29:01.085Z,16
2018-08-22T18:30:01.087Z,16
2018-08-22T18:32:01.088Z,14
2018-08-22T18:33:01.100Z,13
2018-08-22T18:34:01.099Z,14
2018-08-22T18:37:01.084Z,15
2018-08-22T18:39:01.086Z,14
2018-08-22T18:40:01.087Z,16
2018-08-22T18:41:01.086Z,18
2018-08-22T18:42:01.088Z,19
2018-08-22T18:43:01.088Z,20
2018-08-22T18:45:01.092Z,18
2018-08-22T18:47:01.154Z,16
2018-08-22T18:48:01.090Z,18
2018-08-22T18:50:01.087Z,19
2018-08-22T18:51:01.090Z,18
2018-08-22T18:52:01.089Z,17
2018-08-22T18:53:01.087Z,16
2018-08-22T18:54:01.089Z,15
2018-08-22T18:56:01.089Z,16
2018-08-22T18:57:01.089Z,17
2018-08-22T18:59:01.096Z,18
2018-08-22T19:00:01.088Z,17
2018-08-22T19:01:01.092Z,16
2018-08-22T19:02:01.090Z,18
2018-08-22T19:03:01.091Z,17
2018-08-22T19:04:01.089Z,18
2018-08-22T19:07:01.094Z,16
2018-08-22T19:11:01.186Z,17
2018-08-22T19:13:01.093Z,16
2018-08-22T19:15:01.093Z,16
2018-08-22T19:16:01.127Z,17
2018-08-22T19:17:01.091Z,18
2018-08-22T19:21:01.141Z,16
2018-08-22T19:22:01.093Z,15
2018-08-22T19:23:01.094Z,17
2018-08-22T19:25:01.155Z,16
2018-08-22T19:27:01.094Z,19
2018-08-22T19:28:01.098Z,17
2018-08-22T19:29:01.093Z,18
2018-08-22T19:30:01.097Z,20
2018-08-22T19:31:01.094Z,19
2018-08-22T19:32:01.093Z,17
2018-08-22T19:33:01.094Z,18
2018-08-22T19:34:01.093Z,17
2018-08-22T19:35:01.096Z,15
2018-08-22T19:37:01.094Z,16
2018-08-22T19:41:01.094Z,15
2018-08-22T19:45:01.079Z,15
2018-08-22T19:46:01.144Z,14
2018-08-22T19:49:01.153Z,13
2018-08-22T19:50:01.079Z,14
2018-08-22T19:51:01.116Z,16
2018-08-22T19:52:01.080Z,17
2018-08-22T19:53:01.081Z,16
2018-08-22T19:55:01.082Z,15
2018-08-22T19:58:01.120Z,18
2018-08-22T20:00:01.133Z,18
2018-08-22T20:02:01.083Z,19
2018-08-22T20:03:01.086Z,16
2018-08-22T20:05:01.087Z,18
2018-08-22T20:07:01.088Z,16
2018-08-22T20:08:01.091Z,17
2018-08-22T20:09:01.084Z,16
2018-08-22T20:10:01.089Z,14
2018-08-22T20:11:01.085Z,15
2018-08-22T20:12:01.086Z,16
2018-08-22T20:14:01.092Z,17
2018-08-22T20:15:01.150Z,17
2018-08-22T20:16:01.092Z,16
2018-08-22T20:17:01.136Z,17
2018-08-22T20:18:01.089Z,16
2018-08-22T20:21:01.119Z,17
2018-08-22T20:23:01.259Z,19
2018-08-22T20:25:01.091Z,21
2018-08-22T20:26:01.124Z,22
2018-08-22T20:28:01.091Z,21